Time;durP1;ratioP1;P1;durP2;ratioP2;P2;SDS_P1;SDS_P2;PMS_P1;PMS_P2;Temp;Humidity;BMP_temperature;BMP_pressure;BME280_temperature;BME280_humidity;BME280_pressure;Samples;Min_cycle;Max_cycle;Signal;HPM_P1;HPM_P2
2021/08/15 00:01:15;;;;;;;13.33;11.10;;;20.80;67.90;;;;;;5052482;28;20432;-88
2021/08/15 00:03:41;;;;;;;13.93;12.23;;;20.90;67.80;;;;;;5052986;28;20994;-87
2021/08/15 00:06:06;;;;;;;17.47;12.50;;;21.00;67.40;;;;;;5052111;28;20181;-87
2021/08/15 00:08:32;;;;;;;20.10;11.67;;;21.00;67.30;;;;;;5052288;28;20192;-89
2021/08/15 00:10:58;;;;;;;16.33;12.00;;;20.90;67.40;;;;;;5053042;28;20288;-88
2021/08/15 00:13:24;;;;;;;16.30;11.80;;;20.90;67.50;;;;;;5051694;28;20243;-88
2021/08/15 00:15:51;;;;;;;15.15;11.45;;;20.90;67.60;;;;;;5053901;28;20185;-87
2021/08/15 00:18:17;;;;;;;26.15;13.07;;;21.00;67.50;;;;;;5056916;28;20220;-86
2021/08/15 00:20:43;;;;;;;22.53;14.17;;;20.90;67.60;;;;;;5068346;28;20212;-86
2021/08/15 00:23:09;;;;;;;21.90;12.73;;;20.80;67.80;;;;;;5061477;28;20205;-86
2021/08/15 00:25:35;;;;;;;17.00;12.02;;;20.80;68.00;;;;;;5056860;28;20538;-87
2021/08/15 00:28:00;;;;;;;21.07;12.23;;;20.80;68.00;;;;;;5053983;28;20181;-87
2021/08/15 00:30:26;;;;;;;22.10;12.97;;;20.70;68.40;;;;;;5053752;28;20169;-88
2021/08/15 00:32:52;;;;;;;18.20;11.50;;;20.60;68.60;;;;;;5051696;28;20205;-88
2021/08/15 00:35:19;;;;;;;18.50;11.67;;;20.60;68.80;;;;;;5052878;28;20209;-88
2021/08/15 00:37:44;;;;;;;13.15;9.85;;;20.60;69.10;;;;;;5052716;28;20179;-88
2021/08/15 00:40:11;;;;;;;14.53;9.87;;;20.50;69.10;;;;;;5052776;28;20618;-88
2021/08/15 00:42:37;;;;;;;15.05;10.30;;;20.60;69.20;;;;;;5051975;28;20300;-88
2021/08/15 00:45:04;;;;;;;14.25;9.75;;;20.60;69.30;;;;;;5052051;28;20250;-87
2021/08/15 00:47:33;;;;;;;19.00;11.63;;;20.50;69.40;;;;;;5052844;28;20173;-87
2021/08/15 00:49:59;;;;;;;13.38;9.75;;;20.60;69.50;;;;;;5053489;28;20173;-87
2021/08/15 00:52:26;;;;;;;18.45;11.18;;;20.40;69.50;;;;;;5060723;28;20246;-87
2021/08/15 00:54:53;;;;;;;16.10;10.25;;;20.50;69.70;;;;;;5053025;28;20181;-87
2021/08/15 00:57:20;;;;;;;14.98;10.35;;;20.50;69.70;;;;;;5053416;28;20181;-87
2021/08/15 00:59:46;;;;;;;20.77;10.77;;;20.60;69.50;;;;;;5054331;28;20189;-88
2021/08/15 01:02:11;;;;;;;15.53;9.90;;;20.60;69.50;;;;;;5053610;28;20208;-87
2021/08/15 01:04:39;;;;;;;16.90;10.90;;;20.50;69.70;;;;;;5052968;28;20204;-88
2021/08/15 01:07:06;;;;;;;25.55;12.35;;;20.60;69.60;;;;;;5053297;28;20907;-87
2021/08/15 01:09:32;;;;;;;13.95;10.18;;;20.70;69.50;;;;;;5052526;28;20556;-87
2021/08/15 01:12:03;;;;;;;15.27;10.35;;;20.70;69.30;;;;;;5059289;28;20540;-87
2021/08/15 01:14:29;;;;;;;19.05;10.55;;;20.70;69.10;;;;;;5060818;28;20211;-87
2021/08/15 01:16:55;;;;;;;20.33;10.50;;;20.80;68.90;;;;;;5056664;28;20196;-87
2021/08/15 01:19:28;;;;;;;12.87;11.40;;;20.80;69.00;;;;;;5059348;28;20169;-88
2021/08/15 01:21:54;;;;;;;17.63;10.90;;;20.70;69.10;;;;;;5053681;28;20288;-88
2021/08/15 01:24:19;;;;;;;17.47;10.70;;;20.80;69.30;;;;;;5051590;28;20295;-88
2021/08/15 01:26:46;;;;;;;18.23;10.90;;;20.70;69.30;;;;;;5053948;28;20165;-88
2021/08/15 01:29:12;;;;;;;16.50;10.93;;;20.60;69.50;;;;;;5061086;28;20172;-88
2021/08/15 01:31:38;;;;;;;15.88;9.75;;;20.50;69.80;;;;;;5050938;28;20178;-89
2021/08/15 01:34:04;;;;;;;23.93;10.37;;;20.50;70.00;;;;;;5053321;28;20261;-88
2021/08/15 01:36:30;;;;;;;14.07;8.88;;;20.50;70.20;;;;;;5051270;28;20270;-88
2021/08/15 01:38:56;;;;;;;16.73;10.90;;;20.60;70.10;;;;;;5052232;28;20587;-88
2021/08/15 01:41:22;;;;;;;15.38;9.98;;;20.60;70.20;;;;;;5057872;28;20423;-88
2021/08/15 01:43:57;;;;;;;17.00;10.30;;;20.50;70.30;;;;;;5055622;28;20209;-88
2021/08/15 01:46:28;;;;;;;14.77;10.38;;;20.50;70.40;;;;;;5058910;28;20172;-88
2021/08/15 01:48:55;;;;;;;14.65;10.65;;;20.40;70.50;;;;;;5071139;28;20173;-88
2021/08/15 01:51:21;;;;;;;17.40;11.77;;;20.40;70.70;;;;;;5058068;28;20231;-88
2021/08/15 01:53:50;;;;;;;17.60;11.18;;;20.30;70.80;;;;;;5060127;28;20208;-87
2021/08/15 01:56:17;;;;;;;14.77;11.38;;;20.30;71.00;;;;;;5060064;28;20185;-87
2021/08/15 01:58:43;;;;;;;22.50;11.15;;;20.20;71.20;;;;;;5060443;28;20173;-87
2021/08/15 02:01:09;;;;;;;19.25;10.88;;;20.30;71.20;;;;;;5061023;28;20231;-87
2021/08/15 02:03:37;;;;;;;14.90;9.73;;;20.30;71.10;;;;;;5061181;28;20221;-87
2021/08/15 02:06:04;;;;;;;13.43;10.15;;;20.30;71.10;;;;;;5061020;28;20179;-86
2021/08/15 02:08:30;;;;;;;15.80;11.25;;;20.30;71.10;;;;;;5056279;28;20172;-87
2021/08/15 02:10:55;;;;;;;16.17;11.07;;;20.30;71.10;;;;;;5057583;28;20169;-87
2021/08/15 02:13:21;;;;;;;15.93;10.30;;;20.30;71.10;;;;;;5060127;28;20202;-87
2021/08/15 02:15:48;;;;;;;17.80;10.07;;;20.20;71.20;;;;;;5061123;28;20637;-88
2021/08/15 02:18:14;;;;;;;17.50;10.07;;;20.20;71.40;;;;;;5059112;28;20283;-86
2021/08/15 02:20:40;;;;;;;15.33;10.83;;;20.20;71.50;;;;;;5061357;28;20603;-86
2021/08/15 02:23:05;;;;;;;11.70;10.13;;;20.20;71.50;;;;;;5060177;28;20521;-86
2021/08/15 02:25:31;;;;;;;17.60;11.67;;;20.10;71.70;;;;;;5059521;28;20412;-86
2021/08/15 02:27:57;;;;;;;22.10;10.60;;;20.10;72.10;;;;;;5055202;28;20184;-88
2021/08/15 02:30:24;;;;;;;18.10;10.43;;;20.10;72.10;;;;;;5054356;28;20828;-88
2021/08/15 02:32:51;;;;;;;16.83;9.10;;;20.00;72.00;;;;;;5054307;28;20200;-87
2021/08/15 02:35:17;;;;;;;17.77;11.60;;;20.10;72.20;;;;;;5060709;28;20192;-86
2021/08/15 02:37:45;;;;;;;20.77;11.57;;;20.00;72.30;;;;;;5069357;28;20257;-86
2021/08/15 02:40:13;;;;;;;14.55;9.63;;;20.00;72.60;;;;;;5054846;28;20419;-87
2021/08/15 02:42:41;;;;;;;13.10;9.75;;;20.00;72.70;;;;;;5057476;28;20209;-86
2021/08/15 02:45:09;;;;;;;15.05;9.85;;;19.90;72.80;;;;;;5059119;28;20738;-86
2021/08/15 02:47:35;;;;;;;15.95;9.90;;;19.90;72.90;;;;;;5070377;28;20533;-86
2021/08/15 02:50:00;;;;;;;17.85;10.95;;;19.80;73.00;;;;;;5062054;28;20177;-86
2021/08/15 02:52:26;;;;;;;20.43;11.93;;;19.80;73.20;;;;;;5056525;28;20204;-87
2021/08/15 02:54:52;;;;;;;16.07;10.27;;;19.80;73.20;;;;;;5056866;28;20430;-87
2021/08/15 02:57:18;;;;;;;21.30;10.50;;;19.80;73.40;;;;;;5056134;28;20176;-87
2021/08/15 02:59:44;;;;;;;12.85;9.77;;;19.80;73.50;;;;;;5057358;28;20415;-86
2021/08/15 03:02:13;;;;;;;16.57;10.77;;;19.80;73.50;;;;;;5056182;28;20201;-87
2021/08/15 03:04:39;;;;;;;15.45;11.27;;;19.90;73.40;;;;;;5055506;28;20467;-86
2021/08/15 03:07:04;;;;;;;19.43;10.17;;;20.00;73.10;;;;;;5053648;28;20275;-87
2021/08/15 03:09:30;;;;;;;20.20;10.17;;;19.90;73.00;;;;;;5035324;28;20841;-86
2021/08/15 03:11:57;;;;;;;17.85;10.57;;;20.00;72.80;;;;;;5034021;28;20198;-87
2021/08/15 03:14:23;;;;;;;16.60;9.43;;;20.10;72.60;;;;;;5033372;28;20243;-88
2021/08/15 03:16:48;;;;;;;21.37;10.70;;;20.00;72.40;;;;;;5034472;28;20268;-88
2021/08/15 03:19:14;;;;;;;14.80;10.43;;;20.10;72.50;;;;;;5033263;28;20420;-88
2021/08/15 03:21:40;;;;;;;15.50;10.40;;;20.00;72.40;;;;;;5033677;28;20272;-88
2021/08/15 03:24:06;;;;;;;14.13;10.27;;;19.80;72.50;;;;;;5033115;28;20228;-88
2021/08/15 03:26:32;;;;;;;21.35;9.98;;;19.70;72.80;;;;;;5034947;28;20869;-88
2021/08/15 03:28:59;;;;;;;13.45;9.48;;;19.70;73.00;;;;;;5034860;28;20189;-88
2021/08/15 03:31:25;;;;;;;19.90;10.43;;;19.80;73.00;;;;;;5032512;28;20181;-88
2021/08/15 03:33:50;;;;;;;12.18;9.48;;;19.80;72.80;;;;;;5034264;28;20229;-88
2021/08/15 03:36:17;;;;;;;16.50;10.07;;;19.80;72.70;;;;;;5032628;28;20254;-88
2021/08/15 03:38:43;;;;;;;21.27;10.80;;;19.70;73.00;;;;;;5032882;28;20417;-88
2021/08/15 03:41:09;;;;;;;16.65;10.10;;;19.60;73.10;;;;;;5034243;28;20580;-88
2021/08/15 03:43:34;;;;;;;21.93;10.83;;;19.60;73.40;;;;;;5040307;28;20206;-87
2021/08/15 03:46:00;;;;;;;12.27;9.33;;;19.60;73.50;;;;;;5049706;28;20443;-87
2021/08/15 03:48:26;;;;;;;15.30;10.07;;;19.60;73.50;;;;;;5042958;28;20186;-88
2021/08/15 03:50:52;;;;;;;14.40;9.47;;;19.60;73.50;;;;;;5041870;28;20250;-88
2021/08/15 03:53:18;;;;;;;13.37;9.43;;;19.60;73.40;;;;;;5052858;28;20208;-88
2021/08/15 03:55:43;;;;;;;15.00;9.60;;;19.60;73.60;;;;;;5062234;28;20212;-88
2021/08/15 03:58:09;;;;;;;17.47;8.93;;;19.60;73.60;;;;;;5062075;28;20200;-87
2021/08/15 04:00:40;;;;;;;14.20;9.27;;;19.60;74.30;;;;;;5067340;28;20189;-86
2021/08/15 04:03:07;;;;;;;17.95;9.13;;;19.50;73.60;;;;;;5063289;28;20197;-87
2021/08/15 04:05:33;;;;;;;16.33;10.13;;;19.50;73.70;;;;;;5061734;28;20263;-88
2021/08/15 04:07:58;;;;;;;15.40;8.60;;;19.50;73.80;;;;;;5059590;28;20165;-88
2021/08/15 04:10:24;;;;;;;11.07;8.40;;;19.60;73.60;;;;;;5054711;28;20226;-87
2021/08/15 04:12:49;;;;;;;12.33;9.53;;;19.50;73.70;;;;;;5055473;28;20247;-87
2021/08/15 04:15:15;;;;;;;14.80;9.90;;;19.60;73.60;;;;;;5052418;28;20181;-87
2021/08/15 04:17:41;;;;;;;11.70;9.30;;;19.70;73.50;;;;;;5053736;28;20255;-87
2021/08/15 04:20:08;;;;;;;14.73;9.13;;;19.70;73.30;;;;;;5052743;28;20271;-87
2021/08/15 04:22:33;;;;;;;16.15;7.30;;;19.70;73.10;;;;;;5053063;28;20658;-88
2021/08/15 04:24:59;;;;;;;15.87;8.90;;;19.80;72.70;;;;;;5052318;28;20300;-88
2021/08/15 04:27:25;;;;;;;15.80;8.43;;;19.80;72.70;;;;;;5052080;28;20205;-88
2021/08/15 04:29:51;;;;;;;14.27;8.50;;;19.80;72.40;;;;;;5054816;28;20553;-88
2021/08/15 04:32:16;;;;;;;14.57;8.57;;;19.80;72.40;;;;;;5053850;28;20538;-87
2021/08/15 04:34:42;;;;;;;14.10;8.50;;;19.80;72.90;;;;;;5055342;28;20700;-86
2021/08/15 04:37:09;;;;;;;13.97;8.03;;;19.80;72.10;;;;;;5056002;28;20514;-87
2021/08/15 04:39:38;;;;;;;13.18;8.57;;;19.70;72.00;;;;;;5055179;28;20552;-87
2021/08/15 04:42:04;;;;;;;17.33;8.68;;;19.70;72.30;;;;;;5055921;28;20570;-87
2021/08/15 04:44:29;;;;;;;16.40;8.15;;;19.60;72.20;;;;;;5072928;28;20280;-88
2021/08/15 04:46:55;;;;;;;17.53;8.37;;;19.60;72.40;;;;;;5058220;28;20215;-88
2021/08/15 04:49:21;;;;;;;17.30;8.17;;;19.60;72.40;;;;;;5052749;28;20232;-88
2021/08/15 04:51:47;;;;;;;10.60;7.57;;;19.60;72.40;;;;;;5052787;28;20204;-87
2021/08/15 04:54:12;;;;;;;13.50;8.20;;;19.60;72.40;;;;;;5057673;28;20181;-88
2021/08/15 04:56:38;;;;;;;11.37;7.87;;;19.60;72.30;;;;;;5056374;28;20531;-88
2021/08/15 04:59:04;;;;;;;11.93;9.07;;;19.60;72.20;;;;;;5052945;28;20623;-88
2021/08/15 05:01:29;;;;;;;20.40;9.37;;;19.70;72.20;;;;;;5053638;28;20258;-88
2021/08/15 05:03:55;;;;;;;8.57;6.93;;;19.70;72.00;;;;;;5052025;28;20216;-88
2021/08/15 05:06:21;;;;;;;12.53;7.07;;;19.70;71.90;;;;;;5052108;28;20204;-88
2021/08/15 05:08:46;;;;;;;10.47;6.60;;;19.70;71.80;;;;;;5054281;28;20181;-88
2021/08/15 05:11:12;;;;;;;11.67;7.80;;;19.90;71.40;;;;;;5065043;28;20184;-88
2021/08/15 05:13:38;;;;;;;12.20;7.00;;;19.90;70.90;;;;;;5075448;28;20236;-92
2021/08/15 05:16:04;;;;;;;10.17;6.43;;;19.90;70.70;;;;;;5078512;28;20223;-91
2021/08/15 05:18:29;;;;;;;13.73;7.50;;;20.00;70.40;;;;;;5079950;28;20200;-92
2021/08/15 05:20:55;;;;;;;9.80;6.67;;;20.10;70.20;;;;;;5079658;28;20180;-92
2021/08/15 05:23:20;;;;;;;11.83;8.13;;;20.20;69.70;;;;;;5079090;28;20193;-92
2021/08/15 05:25:48;;;;;;;12.93;7.47;;;20.20;69.50;;;;;;5079446;28;20199;-92
2021/08/15 05:28:14;;;;;;;10.65;6.55;;;20.20;69.50;;;;;;5079269;28;20244;-89
2021/08/15 05:30:40;;;;;;;11.53;7.07;;;20.30;69.40;;;;;;5079089;28;20177;-88
2021/08/15 05:33:05;;;;;;;11.00;7.27;;;20.30;69.30;;;;;;5078741;28;20508;-89
2021/08/15 05:35:31;;;;;;;12.43;8.23;;;20.30;70.00;;;;;;5078991;28;20173;-91
2021/08/15 05:37:57;;;;;;;17.73;7.80;;;20.30;69.00;;;;;;5079241;28;20201;-90
2021/08/15 05:40:23;;;;;;;10.73;6.30;;;20.40;68.70;;;;;;5078914;28;20498;-93
2021/08/15 05:42:49;;;;;;;14.75;7.57;;;20.50;68.60;;;;;;5072758;28;20205;-90
2021/08/15 05:45:15;;;;;;;17.70;6.70;;;20.60;68.40;;;;;;5071576;28;20291;-93
2021/08/15 05:47:41;;;;;;;16.50;7.47;;;20.70;68.00;;;;;;5078837;28;20184;-91
2021/08/15 05:50:09;;;;;;;14.67;7.07;;;20.80;67.30;;;;;;5078795;28;20494;-92
2021/08/15 05:52:35;;;;;;;13.80;7.25;;;20.80;66.90;;;;;;5078592;28;20205;-93
2021/08/15 05:55:03;;;;;;;12.35;7.32;;;20.90;66.60;;;;;;5079234;28;20263;-89
2021/08/15 05:57:29;;;;;;;13.65;7.15;;;20.90;66.30;;;;;;5078984;28;20173;-92
2021/08/15 05:59:54;;;;;;;15.00;7.10;;;20.90;66.10;;;;;;5074612;28;20218;-92
2021/08/15 06:02:20;;;;;;;15.20;8.30;;;21.00;66.00;;;;;;5075532;28;20221;-91
2021/08/15 06:04:46;;;;;;;14.27;8.00;;;21.20;65.90;;;;;;5078171;28;20322;-93
2021/08/15 06:07:13;;;;;;;15.20;8.00;;;21.40;65.40;;;;;;5078570;28;20176;-92
2021/08/15 06:09:38;;;;;;;14.15;6.40;;;21.60;65.00;;;;;;5078537;28;20161;-91
2021/08/15 06:12:05;;;;;;;13.37;7.77;;;21.70;64.50;;;;;;5077333;28;20193;-90
2021/08/15 06:14:32;;;;;;;15.18;6.80;;;21.70;64.20;;;;;;5078738;28;20165;-90
2021/08/15 06:16:57;;;;;;;13.20;7.82;;;21.90;63.70;;;;;;5077670;28;20196;-90
2021/08/15 06:19:23;;;;;;;13.13;7.20;;;22.10;62.90;;;;;;5077840;28;20173;-90
2021/08/15 06:21:49;;;;;;;9.33;6.33;;;22.40;62.10;;;;;;5077357;28;20185;-91
2021/08/15 06:24:15;;;;;;;11.67;7.47;;;22.80;61.20;;;;;;5076393;28;20227;-91
2021/08/15 06:26:40;;;;;;;14.97;7.20;;;23.20;60.00;;;;;;5074059;28;20224;-90
2021/08/15 06:29:06;;;;;;;15.80;6.50;;;23.60;58.50;;;;;;5075737;28;20436;-91
2021/08/15 06:31:32;;;;;;;12.43;7.40;;;23.90;57.20;;;;;;5063853;28;20742;-89
2021/08/15 06:33:57;;;;;;;14.20;8.27;;;24.10;56.10;;;;;;5055974;28;20216;-91
2021/08/15 06:36:24;;;;;;;13.43;7.20;;;24.00;55.80;;;;;;5075516;28;20171;-89
2021/08/15 06:38:50;;;;;;;15.23;8.20;;;24.00;55.50;;;;;;5064835;28;20177;-88
2021/08/15 06:41:16;;;;;;;15.03;7.37;;;23.90;55.60;;;;;;5065395;28;20471;-90
2021/08/15 06:43:42;;;;;;;11.50;7.17;;;23.90;55.30;;;;;;5061253;28;20886;-90
2021/08/15 06:46:08;;;;;;;16.17;7.37;;;23.70;55.30;;;;;;5062226;28;20408;-89
2021/08/15 06:48:33;;;;;;;12.17;7.27;;;23.60;55.80;;;;;;5063359;28;20494;-89
2021/08/15 06:51:00;;;;;;;17.63;6.43;;;23.60;56.10;;;;;;5067833;28;20177;-88
2021/08/15 06:53:26;;;;;;;16.73;6.17;;;23.60;56.10;;;;;;5053878;28;20210;-88
2021/08/15 06:55:53;;;;;;;13.10;7.40;;;23.70;55.90;;;;;;5050549;28;20428;-88
2021/08/15 06:58:18;;;;;;;10.03;5.97;;;23.80;55.60;;;;;;5050263;28;20425;-90
2021/08/15 07:00:44;;;;;;;21.27;7.67;;;23.70;55.80;;;;;;5057469;28;20515;-91
2021/08/15 07:03:10;;;;;;;11.53;6.63;;;23.70;55.90;;;;;;5069986;28;20212;-90
2021/08/15 07:05:36;;;;;;;10.00;6.30;;;23.70;56.00;;;;;;5069102;28;20462;-90
2021/08/15 07:08:02;;;;;;;15.10;6.90;;;24.00;55.40;;;;;;5068499;28;20181;-90
2021/08/15 07:10:28;;;;;;;10.87;6.13;;;24.10;54.60;;;;;;5075854;28;20173;-90
2021/08/15 07:12:55;;;;;;;11.80;5.73;;;24.20;53.70;;;;;;5076213;28;20224;-90
2021/08/15 07:15:31;;;;;;;9.80;5.17;;;24.20;53.50;;;;;;5074254;28;20442;-90
2021/08/15 07:17:57;;;;;;;15.73;6.23;;;24.20;53.50;;;;;;5073577;28;20488;-90
2021/08/15 07:20:24;;;;;;;13.47;5.43;;;24.10;53.70;;;;;;5070480;28;20428;-90
2021/08/15 07:22:50;;;;;;;9.90;5.80;;;24.10;54.00;;;;;;5070042;28;20490;-90
2021/08/15 07:25:16;;;;;;;10.03;5.00;;;24.20;53.80;;;;;;5064752;28;20550;-90
2021/08/15 07:27:43;;;;;;;9.53;4.77;;;24.20;53.30;;;;;;5054664;28;20412;-90
2021/08/15 07:30:10;;;;;;;10.87;5.97;;;24.10;53.70;;;;;;5054389;28;20448;-90
2021/08/15 07:32:47;;;;;;;7.47;5.13;;;24.20;53.60;;;;;;5053985;28;20892;-90
2021/08/15 07:35:12;;;;;;;10.30;5.17;;;24.20;53.10;;;;;;5055871;28;20796;-90
2021/08/15 07:37:38;;;;;;;9.13;4.80;;;24.30;52.70;;;;;;5060923;28;20411;-90
2021/08/15 07:40:05;;;;;;;9.93;5.33;;;24.30;52.40;;;;;;5064183;28;20181;-90
2021/08/15 07:42:30;;;;;;;12.93;4.60;;;24.40;52.20;;;;;;5063481;28;20205;-91
2021/08/15 07:44:56;;;;;;;8.73;4.97;;;24.40;51.60;;;;;;5059064;28;20465;-90
2021/08/15 07:47:22;;;;;;;7.00;3.97;;;24.40;51.70;;;;;;5053286;28;20280;-90
2021/08/15 07:49:47;;;;;;;9.93;4.67;;;24.40;52.10;;;;;;5053177;28;20181;-90
2021/08/15 07:52:13;;;;;;;10.93;5.63;;;24.40;51.80;;;;;;5052931;28;20292;-90
2021/08/15 07:54:39;;;;;;;11.97;5.80;;;24.40;51.70;;;;;;5054096;28;20188;-90
2021/08/15 07:57:05;;;;;;;7.63;4.57;;;24.20;51.70;;;;;;5051480;28;20188;-89
2021/08/15 07:59:30;;;;;;;12.63;5.60;;;24.20;52.00;;;;;;5037287;28;20197;-89
2021/08/15 08:01:56;;;;;;;8.47;5.10;;;24.20;52.10;;;;;;5033717;28;20436;-88
2021/08/15 08:04:22;;;;;;;17.80;6.27;;;24.40;51.70;;;;;;5036209;28;20202;-89
2021/08/15 08:06:49;;;;;;;10.10;5.17;;;24.40;50.80;;;;;;5050414;28;20180;-90
2021/08/15 08:09:16;;;;;;;11.47;5.20;;;24.40;50.60;;;;;;5053196;28;20556;-90
2021/08/15 08:11:41;;;;;;;8.47;4.93;;;24.40;50.50;;;;;;5055269;28;20497;-90
2021/08/15 08:14:07;;;;;;;7.77;4.90;;;24.40;50.00;;;;;;5050263;28;20428;-90
2021/08/15 08:16:33;;;;;;;9.00;5.60;;;24.40;50.80;;;;;;5033208;28;20436;-90
2021/08/15 08:18:59;;;;;;;12.43;5.50;;;24.40;51.10;;;;;;5035921;28;20519;-85
2021/08/15 08:21:25;;;;;;;6.40;4.43;;;24.40;49.70;;;;;;5033477;28;20181;-85
2021/08/15 08:23:51;;;;;;;8.33;4.90;;;24.50;49.70;;;;;;5038038;28;20198;-85
2021/08/15 08:26:17;;;;;;;13.37;5.60;;;24.60;48.80;;;;;;5036622;28;20413;-85
2021/08/15 08:28:42;;;;;;;5.73;4.30;;;24.50;48.20;;;;;;5034560;28;20892;-84
2021/08/15 08:31:08;;;;;;;7.23;4.60;;;24.30;47.90;;;;;;5050670;28;20433;-85
2021/08/15 08:33:34;;;;;;;6.00;4.00;;;24.20;48.20;;;;;;5038364;28;20547;-85
2021/08/15 08:35:59;;;;;;;7.70;4.17;;;24.40;48.90;;;;;;5035917;28;20178;-85
2021/08/15 08:38:25;;;;;;;7.53;4.40;;;24.40;48.20;;;;;;5035910;28;20186;-85
2021/08/15 08:40:52;;;;;;;7.27;4.17;;;24.30;47.50;;;;;;5035856;28;20608;-85
2021/08/15 08:43:20;;;;;;;9.67;4.10;;;24.20;47.60;;;;;;5034942;28;20205;-84
2021/08/15 08:45:47;;;;;;;8.57;4.67;;;24.00;48.40;;;;;;5036817;28;20423;-84
2021/08/15 08:48:16;;;;;;;10.67;4.40;;;23.90;49.20;;;;;;5035693;28;20449;-85
2021/08/15 08:50:42;;;;;;;9.00;4.80;;;23.80;50.90;;;;;;5033613;28;20589;-85
2021/08/15 08:53:08;;;;;;;9.17;4.53;;;23.80;50.60;;;;;;5033779;28;20551;-85
2021/08/15 08:55:34;;;;;;;5.23;3.33;;;23.60;51.30;;;;;;5034591;28;20204;-84
2021/08/15 08:58:00;;;;;;;6.43;3.83;;;23.60;51.70;;;;;;5037736;28;20562;-85
2021/08/15 09:00:26;;;;;;;8.87;4.00;;;23.70;52.20;;;;;;5039647;28;20496;-85
2021/08/15 09:02:57;;;;;;;6.63;3.80;;;23.50;52.50;;;;;;5038441;28;20702;-85
2021/08/15 09:05:35;;;;;;;5.63;3.60;;;23.50;52.90;;;;;;5042497;28;20451;-85
2021/08/15 09:08:01;;;;;;;11.20;3.70;;;23.30;53.30;;;;;;5058520;28;20904;-85
2021/08/15 09:10:37;;;;;;;8.13;3.90;;;23.40;53.60;;;;;;5058651;28;20421;-85
2021/08/15 09:13:08;;;;;;;4.50;3.77;;;23.50;53.90;;;;;;5057757;28;21013;-85
2021/08/15 09:15:36;;;;;;;4.67;3.20;;;23.50;54.40;;;;;;5058769;28;20889;-85
2021/08/15 09:18:02;;;;;;;6.20;3.00;;;23.60;55.30;;;;;;5059780;28;20444;-85
2021/08/15 09:20:42;;;;;;;8.63;3.60;;;23.60;56.20;;;;;;5059074;28;20915;-85
2021/08/15 09:23:29;;;;;;;6.20;3.23;;;23.70;55.70;;;;;;5060586;28;20466;-85
2021/08/15 09:26:14;;;;;;;7.03;2.90;;;23.70;55.40;;;;;;5059824;28;20423;-85
2021/08/15 09:28:41;;;;;;;3.73;2.47;;;23.70;55.40;;;;;;5070442;28;20458;-85
2021/08/15 09:31:29;;;;;;;4.23;2.80;;;23.60;55.80;;;;;;5061638;28;20404;-84
2021/08/15 09:33:57;;;;;;;3.40;2.57;;;23.70;56.70;;;;;;5061573;28;20957;-85
2021/08/15 09:36:33;;;;;;;4.73;3.10;;;23.70;56.60;;;;;;5061736;28;20462;-85
2021/08/15 09:39:02;;;;;;;5.70;2.50;;;23.60;56.50;;;;;;5061592;28;20441;-85
2021/08/15 09:41:36;;;;;;;5.40;3.10;;;23.80;56.70;;;;;;5060887;28;20408;-85
2021/08/15 09:44:30;;;;;;;5.83;2.90;;;23.90;56.00;;;;;;5060335;28;20463;-85
2021/08/15 09:47:12;;;;;;;7.23;2.77;;;24.20;55.70;;;;;;5061327;28;20407;-85
2021/08/15 09:49:40;;;;;;;4.63;2.60;;;24.40;54.90;;;;;;5062477;28;20396;-85
2021/08/15 09:52:12;;;;;;;4.40;2.67;;;24.60;54.30;;;;;;5060461;28;21043;-84
2021/08/15 09:54:39;;;;;;;4.23;2.20;;;24.70;53.80;;;;;;5061346;28;20423;-85
2021/08/15 09:57:10;;;;;;;4.27;2.70;;;24.90;53.40;;;;;;5061030;28;20426;-85
2021/08/15 09:59:38;;;;;;;4.33;2.40;;;24.90;52.60;;;;;;5060808;28;20419;-85
2021/08/15 10:02:05;;;;;;;4.37;2.80;;;25.10;51.60;;;;;;5063836;28;20940;-85
2021/08/15 10:04:31;;;;;;;4.53;3.17;;;25.30;50.90;;;;;;5062734;28;20516;-85
2021/08/15 10:06:58;;;;;;;6.07;2.67;;;25.30;50.00;;;;;;5045915;28;20417;-85
2021/08/15 10:09:25;;;;;;;2.60;2.37;;;25.20;49.70;;;;;;5042580;28;20435;-85
2021/08/15 10:11:51;;;;;;;5.87;3.03;;;25.50;49.70;;;;;;5042829;28;20417;-85
2021/08/15 10:14:18;;;;;;;5.40;2.90;;;25.70;49.70;;;;;;5044410;28;20441;-85
2021/08/15 10:17:07;;;;;;;4.93;2.80;;;25.80;49.00;;;;;;5043500;28;20440;-85
2021/08/15 10:19:56;;;;;;;5.53;3.67;;;25.80;48.80;;;;;;5045314;28;20535;-84
2021/08/15 10:22:24;;;;;;;6.00;3.30;;;25.80;48.20;;;;;;5040045;28;20468;-84
2021/08/15 10:24:54;;;;;;;14.10;4.80;;;25.80;48.50;;;;;;5040952;28;20457;-84
2021/08/15 10:27:38;;;;;;;6.00;2.97;;;25.80;48.60;;;;;;5051112;28;20480;-84
2021/08/15 10:30:30;;;;;;;6.70;3.40;;;25.60;48.10;;;;;;5041517;28;20554;-84
2021/08/15 10:32:56;;;;;;;5.50;3.13;;;25.70;48.20;;;;;;5038906;28;20436;-84
2021/08/15 10:35:22;;;;;;;6.50;3.63;;;25.80;48.50;;;;;;5040903;28;20409;-84
2021/08/15 10:37:51;;;;;;;12.50;3.60;;;25.80;49.10;;;;;;5040572;28;20182;-84
2021/08/15 10:40:39;;;;;;;5.17;3.07;;;25.80;49.00;;;;;;5040337;28;20803;-84
2021/08/15 10:43:10;;;;;;;5.17;3.50;;;25.80;49.20;;;;;;5040793;28;20462;-83
2021/08/15 10:45:36;;;;;;;7.40;3.37;;;25.60;48.20;;;;;;5059626;28;20471;-84
2021/08/15 10:48:05;;;;;;;5.00;2.97;;;25.40;46.70;;;;;;5060442;28;20899;-84
2021/08/15 10:50:51;;;;;;;7.60;4.60;;;25.20;46.60;;;;;;5059576;28;20416;-84
2021/08/15 10:53:26;;;;;;;12.53;3.47;;;25.20;47.70;;;;;;5058842;28;20439;-84
2021/08/15 10:56:10;;;;;;;7.00;3.57;;;25.20;47.60;;;;;;5059798;28;20415;-84
2021/08/15 10:58:43;;;;;;;5.37;3.30;;;25.20;48.40;;;;;;5059023;28;20503;-84
2021/08/15 11:01:14;;;;;;;5.53;3.00;;;25.10;48.80;;;;;;5058592;28;20919;-84
2021/08/15 11:03:50;;;;;;;3.87;3.03;;;25.20;49.70;;;;;;5059777;28;20440;-84
2021/08/15 11:06:31;;;;;;;4.40;3.00;;;25.30;49.20;;;;;;5068454;28;20800;-84
2021/08/15 11:09:08;;;;;;;5.83;3.30;;;25.30;49.80;;;;;;5078063;28;20419;-84
2021/08/15 11:11:41;;;;;;;7.00;3.93;;;25.30;50.40;;;;;;5077901;28;20433;-83
2021/08/15 11:14:23;;;;;;;4.73;2.97;;;25.30;50.50;;;;;;5077783;28;20419;-84
2021/08/15 11:16:52;;;;;;;7.63;3.20;;;25.40;49.70;;;;;;5079481;28;20438;-84
2021/08/15 11:19:17;;;;;;;7.80;3.20;;;25.40;49.80;;;;;;5079209;28;20419;-84
2021/08/15 11:22:16;;;;;;;7.23;3.07;;;25.50;51.10;;;;;;5066399;28;20782;-84
2021/08/15 11:24:44;;;;;;;7.57;3.60;;;25.50;51.00;;;;;;5070540;28;20196;-84
2021/08/15 11:27:19;;;;;;;6.73;2.93;;;25.60;51.30;;;;;;5057931;28;20502;-84
2021/08/15 11:29:46;;;;;;;9.37;3.37;;;25.70;51.00;;;;;;5057415;28;20833;-83
2021/08/15 11:32:18;;;;;;;7.17;3.20;;;25.80;50.50;;;;;;5058494;28;20474;-84
2021/08/15 11:35:11;;;;;;;5.00;3.20;;;25.80;49.30;;;;;;5054263;28;20436;-84
2021/08/15 11:37:38;;;;;;;5.80;2.60;;;25.90;49.60;;;;;;5057867;28;20727;-84
2021/08/15 11:40:13;;;;;;;7.93;3.50;;;26.00;50.00;;;;;;5068443;28;20765;-83
2021/08/15 11:42:39;;;;;;;5.53;3.60;;;26.10;50.40;;;;;;5063763;28;20441;-84
2021/08/15 11:45:06;;;;;;;3.47;2.77;;;26.10;48.80;;;;;;5058395;28;20459;-84
2021/08/15 11:47:34;;;;;;;5.23;3.50;;;26.20;50.10;;;;;;5060003;28;20417;-84
2021/08/15 11:50:14;;;;;;;4.63;3.60;;;26.20;49.90;;;;;;5057858;28;20420;-84
2021/08/15 11:52:40;;;;;;;5.07;3.07;;;26.30;48.80;;;;;;5060857;28;20443;-84
2021/08/15 11:55:16;;;;;;;6.37;3.07;;;26.20;48.50;;;;;;5073304;28;20484;-84
2021/08/15 11:57:47;;;;;;;5.63;3.33;;;26.40;48.00;;;;;;5072966;28;20168;-84
2021/08/15 12:00:16;;;;;;;5.90;4.10;;;26.60;47.30;;;;;;5058733;28;20526;-84
2021/08/15 12:03:16;;;;;;;3.70;3.40;;;26.80;47.60;;;;;;5057122;28;20440;-84
2021/08/15 12:05:50;;;;;;;9.50;3.60;;;26.90;48.00;;;;;;5065241;28;20482;-84
2021/08/15 12:08:21;;;;;;;4.80;3.60;;;26.90;46.80;;;;;;5076084;28;20421;-84
2021/08/15 12:10:52;;;;;;;7.53;3.57;;;27.00;47.10;;;;;;5078252;28;20405;-84
2021/08/15 12:13:21;;;;;;;4.60;3.60;;;27.10;47.10;;;;;;5076526;28;20888;-84
2021/08/15 12:15:54;;;;;;;9.87;3.53;;;27.20;46.20;;;;;;5076380;28;20427;-84
2021/08/15 12:18:46;;;;;;;4.03;3.33;;;27.20;46.80;;;;;;5080749;28;20439;-84
2021/08/15 12:21:15;;;;;;;7.53;3.80;;;27.20;46.40;;;;;;5076918;28;20462;-84
2021/08/15 12:23:57;;;;;;;4.63;3.97;;;27.20;44.90;;;;;;5086399;28;20436;-84
2021/08/15 12:26:28;;;;;;;4.77;3.47;;;27.40;44.20;;;;;;5061302;28;20492;-84
2021/08/15 12:28:59;;;;;;;5.07;3.60;;;27.40;44.30;;;;;;5058599;28;20423;-84
2021/08/15 12:31:31;;;;;;;6.60;4.10;;;27.60;44.70;;;;;;5057207;28;20774;-84
2021/08/15 12:34:18;;;;;;;6.83;4.20;;;27.50;44.10;;;;;;5056231;28;20920;-84
2021/08/15 12:36:45;;;;;;;6.50;3.53;;;27.80;43.20;;;;;;5058407;28;20469;-84
2021/08/15 12:39:12;;;;;;;4.53;3.50;;;27.90;43.30;;;;;;5056961;28;20507;-84
2021/08/15 12:41:50;;;;;;;7.90;4.30;;;28.00;44.10;;;;;;5055529;28;20418;-84
2021/08/15 12:44:19;;;;;;;6.10;4.10;;;28.10;44.20;;;;;;5056337;28;20483;-84